Time,TemperatureF,DewpointF,PressureIn,WindDirection,WindDirectionDegrees,WindSpeedMPH,WindSpeedGustMPH,Humidity,HourlyPrecipIn,Conditions,Clouds,dailyrainin,SolarRadiationWatts/m^2,SoftwareType,DateUTC
2013-08-27 00:00:00,69.0,67.0,-100.00,South,177,3.0,8.0,94,0.01,,,2.11,0.000000,,2013-08-27 05:00:00,
2013-08-27 00:43:00,69.0,67.0,-100.00,South,177,3.0,8.0,94,0.01,,,2.11,0.000000,,2013-08-27 05:43:00,
2013-08-27 00:52:00,69.0,67.0,-100.00,South,177,3.0,8.0,94,0.01,,,2.11,0.000000,,2013-08-27 05:52:00,
2013-08-27 01:00:00,69.0,68.0,-100.00,NNW,341,0.0,6.0,96,0.00,,,2.11,0.000000,,2013-08-27 06:00:00,
2013-08-27 01:22:00,69.0,68.0,-100.00,NNW,341,0.0,6.0,96,0.00,,,2.11,0.000000,,2013-08-27 06:22:00,
2013-08-27 01:32:00,69.0,68.0,-100.00,NNW,341,0.0,6.0,96,0.00,,,2.11,0.000000,,2013-08-27 06:32:00,
2013-08-27 01:42:00,69.0,68.0,-100.00,NNW,341,0.0,6.0,96,0.00,,,2.11,0.000000,,2013-08-27 06:42:00,
2013-08-27 01:52:00,69.0,68.0,-100.00,NNW,341,0.0,6.0,96,0.00,,,2.11,0.000000,,2013-08-27 06:52:00,
2013-08-27 02:00:00,69.0,67.0,-100.00,ESE,103,4.0,17.0,94,0.00,,,2.11,0.000000,,2013-08-27 07:00:00,
2013-08-27 02:42:00,69.0,67.0,-100.00,ESE,103,4.0,17.0,94,0.00,,,2.11,0.000000,,2013-08-27 07:42:00,
2013-08-27 02:52:00,69.0,67.0,-100.00,ESE,103,4.0,17.0,94,0.00,,,2.11,0.000000,,2013-08-27 07:52:00,
2013-08-27 03:00:00,69.0,68.0,-100.00,SE,134,3.0,7.0,95,0.00,,,1.97,0.000000,,2013-08-27 08:00:00,
2013-08-27 03:42:00,69.0,68.0,-100.00,SE,134,3.0,7.0,95,0.00,,,1.97,0.000000,,2013-08-27 08:42:00,
2013-08-27 03:52:00,69.0,68.0,-100.00,SE,134,3.0,7.0,95,0.00,,,1.97,0.000000,,2013-08-27 08:52:00,
2013-08-27 04:00:00,70.0,68.0,-100.00,West,269,7.0,16.0,94,0.26,,,1.21,0.000000,,2013-08-27 09:00:00,
2013-08-27 04:43:00,70.0,68.0,-100.00,West,269,7.0,16.0,94,0.26,,,1.21,0.000000,,2013-08-27 09:43:00,
2013-08-27 04:54:00,70.0,68.0,-100.00,West,269,7.0,16.0,94,0.26,,,1.21,0.000000,,2013-08-27 09:54:00,
2013-08-27 05:00:00,69.0,68.0,-100.00,SSE,158,2.0,14.0,97,1.18,,,2.22,0.000000,,2013-08-27 10:00:00,
2013-08-27 05:25:00,69.0,68.0,-100.00,SSE,158,2.0,14.0,97,1.18,,,2.22,0.000000,,2013-08-27 10:25:00,
2013-08-27 05:33:00,69.0,68.0,-100.00,SSE,158,2.0,14.0,97,1.18,,,2.22,0.000000,,2013-08-27 10:33:00,
2013-08-27 05:43:00,69.0,68.0,-100.00,SSE,158,2.0,14.0,97,1.18,,,2.22,0.000000,,2013-08-27 10:43:00,
2013-08-27 05:53:00,69.0,68.0,-100.00,SSE,158,2.0,14.0,97,1.18,,,2.22,0.000000,,2013-08-27 10:53:00,
2013-08-27 06:00:00,69.0,68.0,-100.00,SSE,147,1.0,6.0,98,0.04,,,2.26,0.000000,,2013-08-27 11:00:00,
2013-08-27 06:42:00,69.0,68.0,-100.00,SSE,147,1.0,6.0,98,0.04,,,2.26,0.000000,,2013-08-27 11:42:00,
2013-08-27 06:52:00,69.0,68.0,-100.00,SSE,147,1.0,6.0,98,0.04,,,2.26,0.000000,,2013-08-27 11:52:00,
2013-08-27 07:00:00,69.0,68.0,-100.00,SE,142,1.0,3.0,98,0.00,,,2.26,4.000000,,2013-08-27 12:00:00,
2013-08-27 07:42:00,69.0,68.0,-100.00,SE,142,1.0,3.0,98,0.00,,,2.26,4.000000,,2013-08-27 12:42:00,
2013-08-27 07:52:00,69.0,68.0,-100.00,SE,142,1.0,3.0,98,0.00,,,2.26,4.000000,,2013-08-27 12:52:00,
2013-08-27 08:00:00,70.0,69.0,-100.00,NNE,18,3.0,6.0,98,0.00,,,2.26,29.000000,,2013-08-27 13:00:00,
2013-08-27 08:42:00,70.0,69.0,-100.00,NNE,18,3.0,6.0,98,0.00,,,2.26,29.000000,,2013-08-27 13:42:00,
2013-08-27 08:52:00,70.0,69.0,-100.00,NNE,18,3.0,6.0,98,0.00,,,2.26,29.000000,,2013-08-27 13:52:00,
2013-08-27 09:00:00,70.0,69.0,-100.00,North,11,4.0,6.0,97,0.00,,,2.26,43.000000,,2013-08-27 14:00:00,
2013-08-27 09:42:00,70.0,69.0,-100.00,North,11,4.0,6.0,97,0.00,,,2.26,43.000000,,2013-08-27 14:42:00,
2013-08-27 09:53:00,70.0,69.0,-100.00,North,11,4.0,6.0,97,0.00,,,2.26,43.000000,,2013-08-27 14:53:00,
2013-08-27 10:00:00,71.0,70.0,-100.00,NNE,22,3.0,7.0,97,0.01,,,2.27,84.000000,,2013-08-27 15:00:00,
2013-08-27 10:22:00,71.0,70.0,-100.00,NNE,22,3.0,7.0,97,0.01,,,2.27,84.000000,,2013-08-27 15:22:00,
2013-08-27 10:35:00,71.0,70.0,-100.00,NNE,22,3.0,7.0,97,0.01,,,2.27,84.000000,,2013-08-27 15:35:00,
2013-08-27 10:45:00,71.0,70.0,-100.00,NNE,22,3.0,7.0,97,0.01,,,2.27,84.000000,,2013-08-27 15:45:00,
2013-08-27 10:58:00,71.0,70.0,-100.00,NNE,22,3.0,7.0,97,0.01,,,2.27,84.000000,,2013-08-27 15:58:00,
2013-08-27 11:00:00,73.0,71.0,-100.00,ESE,112,2.0,5.0,93,0.00,,,2.27,195.000000,,2013-08-27 16:00:00,
2013-08-27 11:28:00,73.0,71.0,-100.00,ESE,112,2.0,5.0,93,0.00,,,2.27,195.000000,,2013-08-27 16:28:00,
2013-08-27 11:35:00,73.0,71.0,-100.00,ESE,112,2.0,5.0,93,0.00,,,2.27,195.000000,,2013-08-27 16:35:00,
2013-08-27 11:46:00,73.0,71.0,-100.00,ESE,112,2.0,5.0,93,0.00,,,2.27,195.000000,,2013-08-27 16:46:00,
2013-08-27 11:55:00,73.0,71.0,-100.00,ESE,112,2.0,5.0,93,0.00,,,2.27,195.000000,,2013-08-27 16:55:00,
2013-08-27 12:00:00,76.0,72.0,-100.00,North,4,4.0,6.0,88,0.00,,,2.27,331.000000,,2013-08-27 17:00:00,
2013-08-27 12:23:00,76.0,72.0,-100.00,North,4,4.0,6.0,88,0.00,,,2.27,331.000000,,2013-08-27 17:23:00,
2013-08-27 12:36:00,76.0,72.0,-100.00,North,4,4.0,6.0,88,0.00,,,2.27,331.000000,,2013-08-27 17:36:00,
2013-08-27 12:43:00,76.0,72.0,-100.00,North,4,4.0,6.0,88,0.00,,,2.27,331.000000,,2013-08-27 17:43:00,
2013-08-27 12:52:00,76.0,72.0,-100.00,North,4,4.0,6.0,88,0.00,,,2.27,331.000000,,2013-08-27 17:52:00,
2013-08-27 13:00:00,78.0,72.0,-100.00,North,357,4.0,7.0,81,0.00,,,2.27,472.000000,,2013-08-27 18:00:00,
2013-08-27 13:42:00,78.0,72.0,-100.00,North,357,4.0,7.0,81,0.00,,,2.27,472.000000,,2013-08-27 18:42:00,
2013-08-27 13:53:00,78.0,72.0,-100.00,North,357,4.0,7.0,81,0.00,,,2.27,472.000000,,2013-08-27 18:53:00,
2013-08-27 14:00:00,79.0,72.0,-100.00,NNW,340,4.0,8.0,80,0.00,,,2.27,487.000000,,2013-08-27 19:00:00,
2013-08-27 14:22:00,79.0,72.0,-100.00,NNW,340,4.0,8.0,80,0.00,,,2.27,487.000000,,2013-08-27 19:22:00,
2013-08-27 14:32:00,79.0,72.0,-100.00,NNW,340,4.0,8.0,80,0.00,,,2.27,487.000000,,2013-08-27 19:32:00,
2013-08-27 14:42:00,79.0,72.0,-100.00,NNW,340,4.0,8.0,80,0.00,,,2.27,487.000000,,2013-08-27 19:42:00,
2013-08-27 14:52:00,79.0,72.0,-100.00,NNW,340,4.0,8.0,80,0.00,,,2.27,487.000000,,2013-08-27 19:52:00,